Auburn Hills, Michigan
Current Conditions -  °F | °C
As of 2:55 PM on Monday 24 Nov 2014 (Local Time) from KVLL Reporting Station
Overcast Overcast  
Wind Chill: 37°   Ceiling: 2500
Heat Index: 46°   Visibility: 10mi
Dew Point: 34°   Wind: 31mph
Humidity: 63%   Direction: 220°SW
Pressure: 29.3"   Gusts: 40mph
Location:  42.67°N, 83.22°W
Report Text: KVLL 241955Z AUTO 22027G35KT 10SM OVC025 08/01 A2930 RMK AO2 T00800013
Loading
Personal Weather Stations






























Interactive Weather Map New forecast layout! Learn more

10-Day Weather Forecast

Advertisements
Track Severe Weather on mobile